San Francisco, CA

12:59 AM PST on December 10, 2016 (GMT -0800)
Potrero Hill | | Change Station

Elev 20 ft 37.77 °N, 122.40 °W | Updated 27 seconds ago

Overcast
Overcast
62.1 °F
Feels Like 62.1 °F
N
13.9
Wind Variable Wind from South
Gusts 17.5 mph

Today
High -- | Low -- °F
--% Chance of Precip.
Yesterday
High -- | Low -- °F
Precip. -- in
Pressure 30.12 in
Visibility 6.0 miles
Clouds Mostly Cloudy 1000 ft
Overcast 1400 ft
Dew Point 60 °F
Humidity 94%
Rainfall 0.00 in
Snow Depth Not available.
7:14 AM 4:50 PM
Waxing Gibbous, 82% visible
METAR KOAK 100853Z 19010KT 6SM -RA BR BKN010 OVC014 16/14 A3012 RMK AO2 SLP197 P0003 60004 T01560144 56003
Pressure 30.12 in
Visibility 6.0 miles
Clouds Mostly Cloudy 1000 ft
Overcast 1400 ft
Dew Point 60 °F
Humidity 94%
Rainfall 0.00 in
Snow Depth Not available.
7:14 AM 4:50 PM
Waxing Gibbous, 82% visible
METAR KOAK 100853Z 19010KT 6SM -RA BR BKN010 OVC014 16/14 A3012 RMK AO2 SLP197 P0003 60004 T01560144 56003

10-Day Weather Forecast

Almanac

Astronomy

Dec. 10, 2016 Rise Set
Actual Time
Civil Twilight
Nautical Twilight
Astronomical Twilight
Moon
Length of Visible Light
Length of Day
Tomorrow will be .
, % of the Moon is Illuminated

Today's Extremes

State Highs State Lows

Community

WunderPhotos

Upload Photos

1,956,538 photos uploaded!

WunderBlog® & News

Nearby

Air Quality

  Air Quality AQ Index Pollutant
Not available.

Snow Depth

Station Depth Elevation

Earthquake Activity

City Distance Mag. Time & Date
Minimum magnitude displayed is 2.5.

Coastal Water Temperatures

Place Temperature

Stations

Nearby Weather Stations

Station Location Temp. Windchill Dew Point Humidity Wind Precip. Elev Updated Type
                   

Watches & Warnings

There are currently no watches in effect.